(°F)
83°
79°
76°
74°
72°
70°
68°
(°F)
79°
77°
76°
74°
72°
71°
69°
S
S
SSW
SSE
E
ENE
ENE
(mph)
7-11
5-9
3-7
2-4
2-3
2-3
2-3
(in)
0
0
0
0
0
0
0
(%)
0
0
0
0
0
0
0

Sun elevation

/ 2.3°
sun-icon
UV 6
07:55
19:56
Waning gibbous moon (253°)
23:37
14:04

METAR for Alcantarilla (LERI)

Time Conditions Temperature/
Dewpoint
Wind Visibility Weather Clouds Pressure Change Raw
VFR 82.4°F / 51.8°F 230º 8kt >10km - Clouds and Visibility OK 1019 No Significant change LERI 271700Z 23008KT CAVOK 28/11 Q1019 NOSIG
VFR 86°F / 53.6°F 220º variable 160º to 250º 6kt >10km - Clouds and Visibility OK 1018 No Significant change LERI 271630Z 22006KT 160V250 CAVOK 30/12 Q1018 NOSIG
VFR 87.8°F / 51.8°F 160º 9kt >10km - Clouds and Visibility OK 1019 No Significant change LERI 271600Z 16009KT CAVOK 31/11 Q1019 NOSIG
VFR 89.6°F / 50°F 140º variable 070º to 170º 7kt >10km - Clouds and Visibility OK 1019 No Significant change LERI 271530Z 14007KT 070V170 CAVOK 32/10 Q1019 NOSIG
VFR 89.6°F / 51.8°F 150º variable 100º to 260º 6kt >10km - Clouds and Visibility OK 1019 No Significant change LERI 271500Z 15006KT 100V260 CAVOK 32/11 Q1019 NOSIG
VFR 89.6°F / 53.6°F 100º variable 010º to 180º 3kt >10km - Clouds and Visibility OK 1019 No Significant change LERI 271430Z 10003KT 010V180 CAVOK 32/12 Q1019 NOSIG
VFR 89.6°F / 53.6°F 110º 2kt >10km - Clouds and Visibility OK 1019 No Significant change LERI 271400Z 11002KT CAVOK 32/12 Q1019 NOSIG
VFR 87.8°F / 55.4°F variable 4kt >10km - Clouds and Visibility OK 1019 No Significant change LERI 271330Z VRB04KT CAVOK 31/13 Q1019 NOSIG
VFR 87.8°F / 55.4°F 150º 2kt >10km - Clouds and Visibility OK 1020 No Significant change LERI 271300Z 15002KT CAVOK 31/13 Q1020 NOSIG
VFR 87.8°F / 55.4°F variable 2kt >10km - Clouds and Visibility OK 1020 No Significant change LERI 271230Z VRB02KT CAVOK 31/13 Q1020 NOSIG
VFR 86°F / 57.2°F 110º variable 050º to 200º 3kt >10km - Clouds and Visibility OK 1020 No Significant change LERI 271200Z 11003KT 050V200 CAVOK 30/14 Q1020 NOSIG
VFR 84.2°F / 57.2°F 30º variable 300º to 100º 3kt >10km - Clouds and Visibility OK 1021 No Significant change LERI 271130Z 03003KT 300V100 CAVOK 29/14 Q1021 NOSIG
VFR 84.2°F / 57.2°F variable 3kt >10km - Clouds and Visibility OK 1021 No Significant change LERI 271100Z VRB03KT CAVOK 29/14 Q1021 NOSIG
VFR 80.6°F / 57.2°F 320º 1kt >10km - Clouds and Visibility OK 1021 No Significant change LERI 271030Z 32001KT CAVOK 27/14 Q1021 NOSIG
VFR 78.8°F / 57.2°F variable 3kt >10km - Clouds and Visibility OK 1021 No Significant change LERI 271000Z VRB03KT CAVOK 26/14 Q1021 NOSIG
VFR 75.2°F / 57.2°F variable 1kt >10km - Clouds and Visibility OK 1021 No Significant change LERI 270930Z VRB01KT CAVOK 24/14 Q1021 NOSIG
VFR 73.4°F / 57.2°F variable 2kt >10km - Clouds and Visibility OK 1022 No Significant change LERI 270900Z VRB02KT CAVOK 23/14 Q1022 NOSIG
VFR 73.4°F / 59°F variable 1kt >10km - Clouds and Visibility OK 1021 No Significant change LERI 270830Z VRB01KT CAVOK 23/15 Q1021 NOSIG
VFR 69.8°F / 59°F variable 0kt >10km - Clouds and Visibility OK 1021 No Significant change LERI 270800Z 00000KT CAVOK 21/15 Q1021 NOSIG
VFR 66.2°F / 59°F variable 0kt >10km - Clouds and Visibility OK 1021 No Significant change LERI 270730Z 00000KT CAVOK 19/15 Q1021 NOSIG
VFR 62.6°F / 59°F 240º 1kt 9000m - Few Clouds 100ft 1021 No Significant change LERI 270700Z 24001KT 9000 FEW001 17/15 Q1021 NOSIG
VFR 60.8°F / 57.2°F 220º 2kt >10km - Clouds and Visibility OK 1021 No Significant change LERI 270630Z 22002KT CAVOK 16/14 Q1021 NOSIG
VFR 59°F / 57.2°F 230º 2kt >10km - Clouds and Visibility OK 1021 No Significant change LERI 270600Z 23002KT CAVOK 15/14 Q1021 NOSIG
VFR 80.6°F / 57.2°F 170º 8kt >10km - Clouds and Visibility OK 1018 No Significant change LERI 261800Z 17008KT CAVOK 27/14 Q1018 NOSIG

VFR

82.4°F / 51.8°F

[More]
Wind 230º 8kt
Visibility >10km
Weather -
Clouds Clouds and Visibility OK
Pressure 1019
Change No Significant change
Raw LERI 271700Z 23008KT CAVOK 28/11 Q1019 NOSIG

VFR

86°F / 53.6°F

[More]
Wind 220º variable 160º to 250º 6kt
Visibility >10km
Weather -
Clouds Clouds and Visibility OK
Pressure 1018
Change No Significant change
Raw LERI 271630Z 22006KT 160V250 CAVOK 30/12 Q1018 NOSIG

VFR

87.8°F / 51.8°F

[More]
Wind 160º 9kt
Visibility >10km
Weather -
Clouds Clouds and Visibility OK
Pressure 1019
Change No Significant change
Raw LERI 271600Z 16009KT CAVOK 31/11 Q1019 NOSIG

VFR

89.6°F / 50°F

[More]
Wind 140º variable 070º to 170º 7kt
Visibility >10km
Weather -
Clouds Clouds and Visibility OK
Pressure 1019
Change No Significant change
Raw LERI 271530Z 14007KT 070V170 CAVOK 32/10 Q1019 NOSIG

VFR

89.6°F / 51.8°F

[More]
Wind 150º variable 100º to 260º 6kt
Visibility >10km
Weather -
Clouds Clouds and Visibility OK
Pressure 1019
Change No Significant change
Raw LERI 271500Z 15006KT 100V260 CAVOK 32/11 Q1019 NOSIG

VFR

89.6°F / 53.6°F

[More]
Wind 100º variable 010º to 180º 3kt
Visibility >10km
Weather -
Clouds Clouds and Visibility OK
Pressure 1019
Change No Significant change
Raw LERI 271430Z 10003KT 010V180 CAVOK 32/12 Q1019 NOSIG

VFR

89.6°F / 53.6°F

[More]
Wind 110º 2kt
Visibility >10km
Weather -
Clouds Clouds and Visibility OK
Pressure 1019
Change No Significant change
Raw LERI 271400Z 11002KT CAVOK 32/12 Q1019 NOSIG

VFR

87.8°F / 55.4°F

[More]
Wind variable 4kt
Visibility >10km
Weather -
Clouds Clouds and Visibility OK
Pressure 1019
Change No Significant change
Raw LERI 271330Z VRB04KT CAVOK 31/13 Q1019 NOSIG

VFR

87.8°F / 55.4°F

[More]
Wind 150º 2kt
Visibility >10km
Weather -
Clouds Clouds and Visibility OK
Pressure 1020
Change No Significant change
Raw LERI 271300Z 15002KT CAVOK 31/13 Q1020 NOSIG

VFR

87.8°F / 55.4°F

[More]
Wind variable 2kt
Visibility >10km
Weather -
Clouds Clouds and Visibility OK
Pressure 1020
Change No Significant change
Raw LERI 271230Z VRB02KT CAVOK 31/13 Q1020 NOSIG

VFR

86°F / 57.2°F

[More]
Wind 110º variable 050º to 200º 3kt
Visibility >10km
Weather -
Clouds Clouds and Visibility OK
Pressure 1020
Change No Significant change
Raw LERI 271200Z 11003KT 050V200 CAVOK 30/14 Q1020 NOSIG

VFR

84.2°F / 57.2°F

[More]
Wind 30º variable 300º to 100º 3kt
Visibility >10km
Weather -
Clouds Clouds and Visibility OK
Pressure 1021
Change No Significant change
Raw LERI 271130Z 03003KT 300V100 CAVOK 29/14 Q1021 NOSIG

VFR

84.2°F / 57.2°F

[More]
Wind variable 3kt
Visibility >10km
Weather -
Clouds Clouds and Visibility OK
Pressure 1021
Change No Significant change
Raw LERI 271100Z VRB03KT CAVOK 29/14 Q1021 NOSIG

VFR

80.6°F / 57.2°F

[More]
Wind 320º 1kt
Visibility >10km
Weather -
Clouds Clouds and Visibility OK
Pressure 1021
Change No Significant change
Raw LERI 271030Z 32001KT CAVOK 27/14 Q1021 NOSIG

VFR

78.8°F / 57.2°F

[More]
Wind variable 3kt
Visibility >10km
Weather -
Clouds Clouds and Visibility OK
Pressure 1021
Change No Significant change
Raw LERI 271000Z VRB03KT CAVOK 26/14 Q1021 NOSIG

VFR

75.2°F / 57.2°F

[More]
Wind variable 1kt
Visibility >10km
Weather -
Clouds Clouds and Visibility OK
Pressure 1021
Change No Significant change
Raw LERI 270930Z VRB01KT CAVOK 24/14 Q1021 NOSIG

VFR

73.4°F / 57.2°F

[More]
Wind variable 2kt
Visibility >10km
Weather -
Clouds Clouds and Visibility OK
Pressure 1022
Change No Significant change
Raw LERI 270900Z VRB02KT CAVOK 23/14 Q1022 NOSIG

VFR

73.4°F / 59°F

[More]
Wind variable 1kt
Visibility >10km
Weather -
Clouds Clouds and Visibility OK
Pressure 1021
Change No Significant change
Raw LERI 270830Z VRB01KT CAVOK 23/15 Q1021 NOSIG

VFR

69.8°F / 59°F

[More]
Wind variable 0kt
Visibility >10km
Weather -
Clouds Clouds and Visibility OK
Pressure 1021
Change No Significant change
Raw LERI 270800Z 00000KT CAVOK 21/15 Q1021 NOSIG

VFR

66.2°F / 59°F

[More]
Wind variable 0kt
Visibility >10km
Weather -
Clouds Clouds and Visibility OK
Pressure 1021
Change No Significant change
Raw LERI 270730Z 00000KT CAVOK 19/15 Q1021 NOSIG

VFR

62.6°F / 59°F

[More]
Wind 240º 1kt
Visibility 9000m
Weather -
Clouds Few Clouds 100ft
Pressure 1021
Change No Significant change
Raw LERI 270700Z 24001KT 9000 FEW001 17/15 Q1021 NOSIG

VFR

60.8°F / 57.2°F

[More]
Wind 220º 2kt
Visibility >10km
Weather -
Clouds Clouds and Visibility OK
Pressure 1021
Change No Significant change
Raw LERI 270630Z 22002KT CAVOK 16/14 Q1021 NOSIG

VFR

59°F / 57.2°F

[More]
Wind 230º 2kt
Visibility >10km
Weather -
Clouds Clouds and Visibility OK
Pressure 1021
Change No Significant change
Raw LERI 270600Z 23002KT CAVOK 15/14 Q1021 NOSIG

VFR

80.6°F / 57.2°F

[More]
Wind 170º 8kt
Visibility >10km
Weather -
Clouds Clouds and Visibility OK
Pressure 1018
Change No Significant change
Raw LERI 261800Z 17008KT CAVOK 27/14 Q1018 NOSIG

TAF for Alcantarilla (LERI)

From till


Maximum Temperature 29ºC on . Minimum Temperature 15ºC on .
From till Wind 220º 10kt. Visibility 10km or more. Nil Significant Cloud.
Becoming from till Wind variable 2kt. Visibility 10km or more. Nil Significant Cloud.
Becoming from till Wind 150º 10kt. Visibility 10km or more. Nil Significant Cloud.

Raw: TAF LERI 271700Z 2718/2818 22010KT CAVOK TX29/2814Z TN15/2806Z BECMG 2720/2722 VRB02KT BECMG 2810/2812 15010KT

Current satellite and rain images for Alcantarilla, Spain

The location marker is placed on Alcantarilla. [More]

The real-time satellite image combines visible light during daytime with infrared radiation during nighttime. At night, the image is not dark as infrared radiation can detect temperature differences. Unfortunately, low clouds and fog are difficult to distinguish from ground temperatures and thus can be almost invisible during the night. Meteosat satellite images for Europe are updated in real-time every 5 minutes. GOES-16/GOES-17 (North & South America) and Himawari (Asia) images update every 10 minutes.

Precipitation is estimated from radar and satellites. At night precipitation estimates from satellites are less accurate than during daytime. Orange crosses mark places where lightning was detected (over Europe).

Copyright 2021 EUMETSAT / meteoblue. Lightning data provided by nowcast.

Radar for Alcantarilla

Drizzle
Light
Moderate
Heavy
Very Heavy
Hail

The location marker is placed on Alcantarilla. This animation shows the precipitation radar for the last 1 hour. Drizzle or light snow fall might be invisible for the radar. Precipitation intensity is colour coded, ranging from light blue to orange.
Radar data source: AEMET.

Current weather situation and warnings

EUMETNET – MeteoAlarm

pictomap

Source: AEMET

Time delays between this website and the www.meteoalarm.eu website are possible, for the most up to date information about alert levels as published by the participating National Meteorological Services please use www.meteoalarm.eu.